Time;durP1;ratioP1;P1;durP2;ratioP2;P2;SDS_P1;SDS_P2;PMS_P1;PMS_P2;Temp;Humidity;BMP_temperature;BMP_pressure;BME280_temperature;BME280_humidity;BME280_pressure;Samples;Min_cycle;Max_cycle;Signal;HPM_P1;HPM_P2
2022/11/01 00:01:59;;;;;;;11.00;4.25;;;18.50;99.90;;;;;;5048735;28;20089;-89
2022/11/01 00:04:26;;;;;;;17.20;4.63;;;18.50;99.90;;;;;;5038120;28;20442;-89
2022/11/01 00:06:54;;;;;;;13.50;4.57;;;18.50;99.90;;;;;;5038311;28;20041;-89
2022/11/01 00:09:21;;;;;;;11.30;4.22;;;18.40;99.90;;;;;;5043318;22;20045;-84
2022/11/01 00:11:48;;;;;;;20.13;4.65;;;18.40;99.90;;;;;;5021469;28;20525;-84
2022/11/01 00:14:17;;;;;;;10.90;4.35;;;18.40;99.90;;;;;;5019024;28;20468;-84
2022/11/01 00:16:50;;;;;;;11.25;4.13;;;18.50;99.90;;;;;;5023173;28;20401;-84
2022/11/01 00:19:17;;;;;;;18.17;4.47;;;18.40;99.90;;;;;;5024507;28;20474;-84
2022/11/01 00:21:44;;;;;;;15.07;4.15;;;18.40;99.90;;;;;;5023814;28;20120;-84
2022/11/01 00:24:21;;;;;;;15.63;4.05;;;18.40;99.90;;;;;;5027414;28;20679;-84
2022/11/01 00:26:49;;;;;;;13.45;3.92;;;18.40;99.90;;;;;;5022788;28;20041;-84
2022/11/01 00:29:16;;;;;;;19.48;4.82;;;18.40;99.90;;;;;;5017050;28;20056;-84
2022/11/01 00:31:43;;;;;;;13.07;4.80;;;18.40;99.90;;;;;;5023505;28;20506;-84
2022/11/01 00:34:10;;;;;;;20.08;4.75;;;18.40;99.90;;;;;;5029113;28;20045;-84
2022/11/01 00:36:39;;;;;;;18.35;4.93;;;18.40;99.90;;;;;;5026429;28;20121;-84
2022/11/01 00:39:07;;;;;;;13.15;4.45;;;18.50;99.90;;;;;;5028466;28;20055;-85
2022/11/01 00:41:35;;;;;;;15.43;5.10;;;18.40;99.90;;;;;;5028332;28;20049;-84
2022/11/01 00:44:06;;;;;;;21.05;4.72;;;18.40;99.90;;;;;;5027939;28;20494;-85
2022/11/01 00:46:33;;;;;;;15.88;4.80;;;18.40;99.90;;;;;;5011480;28;20043;-84
2022/11/01 00:49:00;;;;;;;15.15;4.95;;;18.40;99.90;;;;;;5028496;28;20041;-84
2022/11/01 00:51:30;;;;;;;12.45;5.05;;;18.30;99.90;;;;;;5027561;28;20046;-84
2022/11/01 00:53:57;;;;;;;13.80;4.88;;;18.30;99.90;;;;;;5008189;28;20046;-84
2022/11/01 00:56:23;;;;;;;14.30;4.47;;;18.30;99.90;;;;;;5020588;28;20037;-84
2022/11/01 00:58:52;;;;;;;16.92;5.25;;;18.30;99.90;;;;;;5029037;28;20071;-85
2022/11/01 01:01:19;;;;;;;14.15;4.97;;;18.30;99.90;;;;;;5027082;28;20053;-84
2022/11/01 01:03:45;;;;;;;13.10;4.55;;;18.30;99.90;;;;;;5028753;28;20045;-84
2022/11/01 01:06:12;;;;;;;10.15;4.20;;;18.30;99.90;;;;;;5017603;28;20045;-84
2022/11/01 01:08:39;;;;;;;13.10;5.05;;;18.20;99.90;;;;;;5028860;28;20506;-84
2022/11/01 01:11:06;;;;;;;10.70;4.70;;;18.20;99.90;;;;;;5028414;28;20521;-84
2022/11/01 01:13:33;;;;;;;12.95;4.40;;;18.20;99.90;;;;;;5029168;28;20041;-84
2022/11/01 01:16:06;;;;;;;10.20;4.80;;;18.20;99.90;;;;;;5025179;28;20494;-84
2022/11/01 01:18:33;;;;;;;15.75;5.00;;;18.20;99.90;;;;;;5028357;28;20561;-84
2022/11/01 01:21:01;;;;;;;14.68;4.60;;;18.10;99.90;;;;;;4996895;28;20425;-85
2022/11/01 01:23:28;;;;;;;15.02;4.97;;;18.10;99.90;;;;;;5023960;28;20203;-85
2022/11/01 01:25:54;;;;;;;16.45;5.05;;;18.10;99.90;;;;;;5025335;28;20577;-84
2022/11/01 01:28:21;;;;;;;14.48;4.30;;;18.10;99.90;;;;;;5027753;28;20067;-84
2022/11/01 01:30:48;;;;;;;13.07;4.65;;;18.10;99.90;;;;;;5021426;28;20050;-84
2022/11/01 01:33:16;;;;;;;13.55;4.85;;;18.10;99.90;;;;;;5028549;28;20049;-84
2022/11/01 01:35:43;;;;;;;8.82;4.75;;;18.20;99.90;;;;;;5023131;28;20033;-84
2022/11/01 01:38:10;;;;;;;10.82;4.72;;;18.10;99.90;;;;;;5029299;28;20056;-85
2022/11/01 01:40:40;;;;;;;15.85;4.90;;;18.10;99.90;;;;;;5026578;28;20042;-84
2022/11/01 01:43:10;;;;;;;15.95;4.68;;;18.10;99.90;;;;;;5032354;28;20053;-84
2022/11/01 01:45:39;;;;;;;16.42;4.38;;;18.10;99.90;;;;;;5030190;28;20045;-84
2022/11/01 01:48:11;;;;;;;13.02;4.43;;;18.10;99.90;;;;;;5032368;28;20517;-85
2022/11/01 01:50:46;;;;;;;13.02;4.38;;;18.10;99.90;;;;;;5030555;28;20045;-84
2022/11/01 01:53:16;;;;;;;14.68;4.60;;;18.10;99.90;;;;;;5030330;28;20051;-84
2022/11/01 01:55:51;;;;;;;14.73;5.28;;;18.10;99.90;;;;;;5030662;28;20040;-84
2022/11/01 01:58:21;;;;;;;14.55;4.45;;;18.10;99.90;;;;;;5032297;28;20045;-84
2022/11/01 02:00:48;;;;;;;8.25;3.80;;;18.10;99.90;;;;;;5030879;28;20050;-84
2022/11/01 02:03:15;;;;;;;11.77;5.18;;;18.10;99.90;;;;;;5030769;28;20049;-84
2022/11/01 02:05:48;;;;;;;11.10;4.95;;;18.10;99.90;;;;;;5030677;28;20049;-85
2022/11/01 02:08:15;;;;;;;11.68;4.30;;;18.20;99.90;;;;;;5031271;28;20053;-85
2022/11/01 02:10:45;;;;;;;10.88;4.00;;;18.20;99.90;;;;;;5014045;28;20045;-85
2022/11/01 02:13:13;;;;;;;12.52;4.70;;;18.20;99.90;;;;;;5016099;28;20049;-85
2022/11/01 02:15:47;;;;;;;13.10;4.40;;;18.10;99.90;;;;;;5030389;28;20482;-85
2022/11/01 02:18:22;;;;;;;9.60;4.53;;;18.10;99.90;;;;;;5032053;28;20053;-85
2022/11/01 02:21:15;;;;;;;13.65;4.20;;;18.10;99.90;;;;;;5030635;28;20049;-85
2022/11/01 02:24:12;;;;;;;13.25;4.78;;;18.20;99.90;;;;;;5026746;28;20045;-84
2022/11/01 02:26:56;;;;;;;12.00;4.75;;;18.10;99.90;;;;;;5028598;28;20064;-84
2022/11/01 02:29:50;;;;;;;13.25;4.78;;;18.10;99.90;;;;;;5030108;28;20475;-85
2022/11/01 02:32:21;;;;;;;18.17;4.50;;;18.10;99.90;;;;;;5021699;28;20042;-84
2022/11/01 02:34:53;;;;;;;10.43;4.38;;;18.10;99.90;;;;;;5022674;28;20046;-84
2022/11/01 02:37:24;;;;;;;15.35;4.07;;;18.10;99.90;;;;;;5011814;28;20045;-84
2022/11/01 02:39:53;;;;;;;13.88;4.63;;;18.10;99.90;;;;;;5012392;28;20037;-84
2022/11/01 02:42:23;;;;;;;12.95;4.88;;;18.10;99.90;;;;;;5019643;28;20068;-84
2022/11/01 02:44:54;;;;;;;10.38;4.18;;;18.10;99.90;;;;;;5022714;28;20051;-84
2022/11/01 02:47:23;;;;;;;13.23;4.65;;;18.10;99.90;;;;;;5022675;28;20057;-85
2022/11/01 02:49:53;;;;;;;17.67;4.72;;;18.10;99.90;;;;;;5028550;28;20052;-85
2022/11/01 02:52:23;;;;;;;10.07;4.30;;;18.10;99.90;;;;;;5024144;28;20052;-84
2022/11/01 02:54:52;;;;;;;14.10;5.05;;;18.10;99.90;;;;;;5023173;28;20533;-84
2022/11/01 02:57:28;;;;;;;11.40;4.30;;;18.10;99.90;;;;;;4993930;28;20046;-85
2022/11/01 03:00:02;;;;;;;11.90;4.00;;;18.10;99.90;;;;;;5028707;28;20056;-84
2022/11/01 03:02:40;;;;;;;12.60;4.38;;;18.10;99.90;;;;;;5030167;28;20052;-85
2022/11/01 03:05:11;;;;;;;11.07;4.35;;;18.10;99.90;;;;;;5029647;28;20051;-84
2022/11/01 03:07:39;;;;;;;13.32;4.80;;;18.10;99.90;;;;;;5030936;28;20056;-84
2022/11/01 03:10:07;;;;;;;13.68;4.22;;;18.10;99.90;;;;;;5030980;28;20045;-84
2022/11/01 03:12:35;;;;;;;10.73;3.88;;;18.00;99.90;;;;;;5029607;28;20046;-84
2022/11/01 03:15:04;;;;;;;12.82;4.10;;;18.10;99.90;;;;;;5029764;28;20124;-84
2022/11/01 03:17:37;;;;;;;16.05;4.53;;;18.00;99.90;;;;;;5028891;28;20037;-85
2022/11/01 03:20:08;;;;;;;13.90;4.57;;;18.00;99.90;;;;;;5011274;28;20044;-84
2022/11/01 03:22:42;;;;;;;10.05;4.25;;;18.00;99.90;;;;;;5024120;28;20037;-84
2022/11/01 03:28:03;;;;;;;9.25;3.90;;;18.00;99.90;;;;;;5025932;28;20042;-84
2022/11/01 03:30:37;;;;;;;13.50;4.55;;;18.00;99.90;;;;;;5011006;28;20498;-85
2022/11/01 03:33:05;;;;;;;13.75;4.18;;;18.00;99.90;;;;;;5013186;28;20037;-84
2022/11/01 03:35:44;;;;;;;11.00;4.38;;;18.00;99.90;;;;;;5023197;28;20053;-84
2022/11/01 03:38:14;;;;;;;12.18;4.32;;;18.00;99.90;;;;;;5029915;28;20064;-84
2022/11/01 03:40:44;;;;;;;8.70;3.80;;;18.00;99.90;;;;;;5029675;28;20219;-84
2022/11/01 03:43:13;;;;;;;8.97;4.20;;;18.00;99.90;;;;;;5027329;28;20056;-84
2022/11/01 03:45:41;;;;;;;9.40;3.83;;;18.00;99.90;;;;;;5029372;28;20049;-84
2022/11/01 03:48:12;;;;;;;10.77;4.05;;;18.00;99.90;;;;;;5029408;28;20037;-84
2022/11/01 03:50:47;;;;;;;11.43;4.15;;;18.00;99.90;;;;;;5011083;28;20050;-84
2022/11/01 03:53:14;;;;;;;13.40;4.15;;;18.00;99.90;;;;;;5026580;28;20599;-85
2022/11/01 03:55:41;;;;;;;9.57;4.20;;;18.00;99.90;;;;;;5029138;28;20516;-84
2022/11/01 03:58:08;;;;;;;10.73;3.97;;;18.00;99.90;;;;;;5029468;28;20064;-85
2022/11/01 04:00:37;;;;;;;8.85;3.78;;;18.00;99.90;;;;;;5029622;28;20045;-84
2022/11/01 04:03:04;;;;;;;10.95;4.22;;;18.00;99.90;;;;;;5023422;28;20490;-85
2022/11/01 04:05:34;;;;;;;10.20;4.10;;;18.00;99.90;;;;;;5029041;28;20045;-85
2022/11/01 04:08:01;;;;;;;11.10;4.05;;;18.00;99.90;;;;;;5026786;28;20033;-85
2022/11/01 04:10:29;;;;;;;9.52;4.13;;;18.00;99.90;;;;;;5028979;28;20037;-85
2022/11/01 04:12:56;;;;;;;11.80;4.45;;;18.00;99.90;;;;;;5026679;28;20049;-85
2022/11/01 04:21:02;;;;;;;9.68;4.05;;;17.90;99.90;;;;;;5027875;28;20060;-85
2022/11/01 04:23:29;;;;;;;9.35;4.10;;;17.90;99.90;;;;;;5027103;28;20037;-85
2022/11/01 04:25:59;;;;;;;13.38;3.95;;;17.90;99.90;;;;;;5028267;28;20041;-85
2022/11/01 04:28:26;;;;;;;9.00;4.13;;;18.00;99.90;;;;;;5028202;28;20045;-85
2022/11/01 04:30:53;;;;;;;8.77;4.40;;;18.00;99.90;;;;;;5028985;28;20045;-84
2022/11/01 04:33:20;;;;;;;10.45;3.97;;;18.00;99.90;;;;;;5021810;28;20510;-85
2022/11/01 04:35:47;;;;;;;13.55;3.80;;;18.00;99.90;;;;;;5024639;28;20053;-85
2022/11/01 04:38:18;;;;;;;10.73;3.85;;;17.90;99.90;;;;;;5027181;28;20049;-85
2022/11/01 04:40:45;;;;;;;;;;;18.00;99.90;;;;;;5027169;28;20040;-85
2022/11/01 04:43:12;;;;;;;9.10;3.53;;;18.00;99.90;;;;;;5026394;28;19971;-85
2022/11/01 04:45:39;;;;;;;9.43;3.60;;;18.00;99.90;;;;;;5027853;28;20518;-85
2022/11/01 04:48:08;;;;;;;11.32;3.70;;;18.00;99.90;;;;;;5027947;28;20041;-84
2022/11/01 04:50:35;;;;;;;12.60;4.03;;;18.00;99.90;;;;;;5027920;28;20042;-85
2022/11/01 04:53:02;;;;;;;12.70;3.65;;;18.00;99.90;;;;;;5027345;28;20502;-84
2022/11/01 04:55:31;;;;;;;9.85;4.15;;;18.00;99.90;;;;;;5027331;28;20510;-85
2022/11/01 04:57:58;;;;;;;11.02;4.10;;;18.00;99.90;;;;;;5027312;28;20494;-85
2022/11/01 05:00:25;;;;;;;8.73;3.95;;;18.00;99.90;;;;;;5028716;28;20037;-84
2022/11/01 05:02:53;;;;;;;11.43;3.90;;;18.00;99.90;;;;;;5026150;28;20038;-84
2022/11/01 05:05:19;;;;;;;7.70;3.55;;;18.00;99.90;;;;;;5028329;28;20072;-85
2022/11/01 05:07:46;;;;;;;11.40;3.75;;;18.00;99.90;;;;;;5028117;28;20044;-85
2022/11/01 05:10:13;;;;;;;9.52;3.60;;;18.10;99.90;;;;;;5027840;28;20638;-85
2022/11/01 05:12:41;;;;;;;12.15;4.22;;;18.00;99.90;;;;;;5025137;28;20052;-85
2022/11/01 05:15:09;;;;;;;9.80;4.00;;;18.00;99.90;;;;;;5029010;28;20044;-84
2022/11/01 05:17:36;;;;;;;11.23;3.00;;;18.00;99.90;;;;;;5027274;28;20034;-85
2022/11/01 05:20:03;;;;;;;9.77;3.85;;;18.00;99.90;;;;;;5028508;28;20049;-85
2022/11/01 05:22:30;;;;;;;7.65;3.50;;;18.00;99.90;;;;;;5032050;28;20041;-85
2022/11/01 05:24:57;;;;;;;9.15;4.15;;;18.00;99.90;;;;;;5031476;28;20509;-85
2022/11/01 05:27:24;;;;;;;11.00;4.10;;;17.90;99.90;;;;;;5014924;28;20049;-85
2022/11/01 05:29:52;;;;;;;9.80;3.45;;;17.90;99.90;;;;;;5032378;28;20504;-85
2022/11/01 05:32:19;;;;;;;9.05;3.70;;;17.90;99.90;;;;;;5030899;28;20048;-85
2022/11/01 05:34:48;;;;;;;10.63;3.25;;;17.90;99.90;;;;;;5032114;28;20140;-85
2022/11/01 05:37:15;;;;;;;9.80;3.58;;;17.90;99.90;;;;;;5032163;28;20069;-85
2022/11/01 05:39:42;;;;;;;8.60;3.72;;;17.90;99.90;;;;;;5032928;28;20045;-85
2022/11/01 05:42:09;;;;;;;10.60;3.70;;;18.00;99.90;;;;;;5006565;28;20059;-84
2022/11/01 05:44:36;;;;;;;9.23;3.67;;;18.10;99.90;;;;;;5025876;28;20044;-85
2022/11/01 05:47:05;;;;;;;12.55;3.90;;;18.00;99.90;;;;;;5031693;28;20049;-84
2022/11/01 05:49:32;;;;;;;7.35;2.97;;;18.00;99.90;;;;;;5031723;28;20037;-83
2022/11/01 05:51:59;;;;;;;8.50;3.15;;;17.90;99.90;;;;;;5018666;28;20049;-84
2022/11/01 05:54:26;;;;;;;9.90;3.38;;;17.90;99.90;;;;;;5031695;28;20045;-82
2022/11/01 05:56:53;;;;;;;9.20;3.10;;;17.90;99.90;;;;;;5031808;28;20502;-83
2022/11/01 05:59:20;;;;;;;13.23;3.40;;;17.90;99.90;;;;;;5032258;28;20049;-90
2022/11/01 06:01:47;;;;;;;8.63;3.33;;;17.90;99.90;;;;;;5018905;28;20157;-85
2022/11/01 06:04:15;;;;;;;7.97;3.08;;;17.90;99.90;;;;;;5031842;28;20056;-83
2022/11/01 06:06:42;;;;;;;7.70;3.17;;;17.90;99.90;;;;;;5017606;28;20418;-84
2022/11/01 06:09:09;;;;;;;9.02;3.28;;;17.90;99.90;;;;;;5039218;22;20045;-89
2022/11/01 06:11:36;;;;;;;7.18;2.95;;;17.90;99.90;;;;;;5008197;28;20038;-89
2022/11/01 06:14:03;;;;;;;7.75;2.90;;;17.90;99.90;;;;;;5014183;28;20125;-89
2022/11/01 06:16:30;;;;;;;8.55;2.80;;;17.90;99.90;;;;;;5013211;28;20049;-90
2022/11/01 06:18:57;;;;;;;10.27;3.38;;;17.90;99.90;;;;;;5008010;28;20132;-88
2022/11/01 06:21:25;;;;;;;9.60;3.10;;;17.90;99.90;;;;;;4996454;28;20049;-88
2022/11/01 06:23:52;;;;;;;11.38;3.47;;;17.90;99.90;;;;;;5012768;28;20042;-88
2022/11/01 06:26:19;;;;;;;8.35;2.75;;;17.90;99.90;;;;;;5012249;28;20046;-88
2022/11/01 06:28:47;;;;;;;8.95;2.88;;;17.90;99.90;;;;;;5013721;28;20561;-89
2022/11/01 06:31:13;;;;;;;9.32;3.05;;;17.90;99.90;;;;;;5012862;28;20048;-88
2022/11/01 06:33:40;;;;;;;7.70;2.50;;;17.90;99.90;;;;;;4995673;28;20052;-88
2022/11/01 06:36:07;;;;;;;7.95;2.42;;;17.90;99.90;;;;;;5013068;28;20046;-89
2022/11/01 06:38:36;;;;;;;6.10;2.20;;;17.90;99.90;;;;;;5012444;28;20042;-88
2022/11/01 06:41:03;;;;;;;11.07;2.28;;;17.90;99.90;;;;;;5003819;28;20074;-89
2022/11/01 06:43:30;;;;;;;6.55;2.15;;;17.90;99.90;;;;;;5008137;28;20049;-90
2022/11/01 06:46:00;;;;;;;7.40;2.10;;;17.80;99.90;;;;;;5010145;28;20041;-90
2022/11/01 06:48:27;;;;;;;9.88;1.90;;;17.90;99.90;;;;;;5011873;28;20072;-89
2022/11/01 06:50:58;;;;;;;6.45;1.42;;;17.70;99.90;;;;;;5010308;28;20065;-94
2022/11/01 06:53:25;;;;;;;4.88;1.50;;;17.70;99.90;;;;;;5010733;28;20041;-83
2022/11/01 06:55:53;;;;;;;7.68;1.60;;;17.70;99.90;;;;;;4995453;28;20049;-83
2022/11/01 06:58:20;;;;;;;5.72;1.50;;;17.60;99.90;;;;;;5009705;28;20521;-83
2022/11/01 07:00:47;;;;;;;6.30;1.30;;;17.60;99.90;;;;;;4993378;28;20720;-83
2022/11/01 07:03:14;;;;;;;4.80;1.02;;;17.60;99.90;;;;;;5010324;28;20513;-82
2022/11/01 07:05:42;;;;;;;5.78;1.30;;;17.60;99.90;;;;;;5009857;28;20405;-82
2022/11/01 07:08:11;;;;;;;3.90;1.40;;;17.50;99.90;;;;;;5011075;28;20046;-82
2022/11/01 07:10:39;;;;;;;6.45;1.30;;;17.50;99.90;;;;;;5009900;28;20056;-82
2022/11/01 07:13:10;;;;;;;8.57;1.42;;;17.50;99.90;;;;;;5002487;28;20042;-82
2022/11/01 07:15:37;;;;;;;4.67;1.10;;;17.40;99.90;;;;;;5002857;28;20046;-83
2022/11/01 07:18:05;;;;;;;3.47;1.00;;;17.40;99.90;;;;;;5003713;28;20091;-84
2022/11/01 07:20:35;;;;;;;6.90;1.45;;;17.40;99.90;;;;;;4992749;28;20193;-92
2022/11/01 07:23:03;;;;;;;7.05;1.20;;;17.30;99.90;;;;;;4998680;28;20042;-82
2022/11/01 07:25:31;;;;;;;4.78;1.05;;;17.30;99.90;;;;;;5010272;28;20121;-81
2022/11/01 07:27:59;;;;;;;5.28;1.10;;;17.20;99.90;;;;;;5002202;28;20424;-82
2022/11/01 07:30:28;;;;;;;5.47;0.90;;;17.20;99.90;;;;;;5009788;28;20498;-82
2022/11/01 07:32:56;;;;;;;5.25;0.88;;;17.20;99.90;;;;;;5003775;28;20125;-85
2022/11/01 07:35:23;;;;;;;5.45;1.20;;;17.20;99.90;;;;;;5007166;28;20077;-85
2022/11/01 07:37:50;;;;;;;6.50;1.10;;;17.10;99.90;;;;;;5002747;28;20057;-86
2022/11/01 07:40:17;;;;;;;3.92;0.82;;;17.10;99.90;;;;;;5004013;28;20056;-86
2022/11/01 07:42:45;;;;;;;5.72;1.45;;;17.20;99.90;;;;;;5004201;28;20062;-89
2022/11/01 07:45:13;;;;;;;4.10;0.90;;;17.00;99.90;;;;;;5008094;28;20099;-87
2022/11/01 07:47:41;;;;;;;5.80;1.05;;;17.10;99.90;;;;;;5007345;28;20041;-89
2022/11/01 07:50:08;;;;;;;4.35;1.23;;;17.10;99.90;;;;;;4998833;28;20058;-89
2022/11/01 07:52:35;;;;;;;8.05;1.23;;;17.00;99.90;;;;;;5008517;28;20045;-90
2022/11/01 07:55:02;;;;;;;5.25;1.30;;;16.90;99.90;;;;;;5005000;28;20054;-87
2022/11/01 07:57:29;;;;;;;4.15;1.02;;;16.90;99.90;;;;;;5004554;28;20042;-86
2022/11/01 07:59:56;;;;;;;5.07;1.10;;;17.00;99.90;;;;;;5010452;28;20091;-87
2022/11/01 08:02:23;;;;;;;6.65;1.38;;;17.00;99.90;;;;;;5003049;28;20054;-84
2022/11/01 08:04:53;;;;;;;4.80;1.08;;;17.00;99.90;;;;;;5008234;28;20048;-84
2022/11/01 08:07:20;;;;;;;7.13;1.30;;;17.00;99.90;;;;;;5006629;28;20042;-84
2022/11/01 08:09:47;;;;;;;5.45;1.27;;;17.00;99.90;;;;;;5000877;28;20490;-84
2022/11/01 08:12:14;;;;;;;4.72;1.25;;;17.00;99.90;;;;;;5007022;28;20100;-84
2022/11/01 08:14:41;;;;;;;4.68;1.17;;;17.00;99.90;;;;;;5008443;28;20050;-84
2022/11/01 08:17:08;;;;;;;5.78;1.27;;;17.00;99.90;;;;;;4981312;28;20042;-84
2022/11/01 08:19:35;;;;;;;6.00;1.20;;;17.10;99.90;;;;;;5003348;28;20050;-82
2022/11/01 08:22:04;;;;;;;4.15;1.00;;;17.00;99.90;;;;;;5009099;28;20402;-93
2022/11/01 08:24:31;;;;;;;7.85;1.23;;;17.00;99.90;;;;;;5007411;28;20042;-89
2022/11/01 08:26:58;;;;;;;6.43;1.20;;;17.10;99.90;;;;;;5003826;28;20096;-88
2022/11/01 08:29:25;;;;;;;6.78;1.30;;;17.10;99.90;;;;;;5004232;28;20050;-88
2022/11/01 08:31:52;;;;;;;6.45;1.40;;;17.10;99.90;;;;;;5008808;28;20129;-88
2022/11/01 08:34:19;;;;;;;7.63;1.92;;;17.10;99.90;;;;;;5007704;28;20061;-88
2022/11/01 08:36:46;;;;;;;5.88;1.40;;;17.10;99.90;;;;;;5008271;28;20121;-88
2022/11/01 08:39:14;;;;;;;9.52;1.90;;;17.10;99.90;;;;;;5007065;28;20624;-88
2022/11/01 08:41:41;;;;;;;7.32;1.80;;;17.10;99.90;;;;;;5008694;28;20046;-89
2022/11/01 08:44:08;;;;;;;6.65;1.55;;;17.10;99.90;;;;;;5009394;28;20048;-87
2022/11/01 08:46:35;;;;;;;5.95;1.60;;;17.20;99.90;;;;;;5008069;28;20129;-89
2022/11/01 08:49:02;;;;;;;10.50;1.48;;;17.20;99.90;;;;;;5007151;28;20044;-88
2022/11/01 08:51:29;;;;;;;7.72;1.50;;;17.20;99.90;;;;;;4991511;28;20123;-88
2022/11/01 08:53:56;;;;;;;6.50;1.35;;;17.20;99.80;;;;;;5008691;28;20053;-88
2022/11/01 08:56:26;;;;;;;12.57;1.83;;;17.10;98.90;;;;;;5008609;28;20061;-89
2022/11/01 08:58:53;;;;;;;8.52;1.42;;;17.10;98.50;;;;;;5007369;28;20057;-88
2022/11/01 09:01:21;;;;;;;11.55;2.10;;;17.20;98.10;;;;;;5008919;28;20045;-89
2022/11/01 09:03:48;;;;;;;14.10;1.98;;;17.10;97.30;;;;;;5009524;28;20379;-88
2022/11/01 09:06:14;;;;;;;8.30;1.95;;;17.10;98.00;;;;;;5007923;28;20706;-88
2022/11/01 09:08:41;;;;;;;11.10;1.98;;;17.00;97.20;;;;;;4992247;28;20658;-88
2022/11/01 09:11:09;;;;;;;14.00;2.40;;;17.30;97.90;;;;;;4991107;28;20468;-88
2022/11/01 09:13:37;;;;;;;10.48;2.58;;;17.10;97.20;;;;;;5009372;28;20050;-89
2022/11/01 09:16:07;;;;;;;7.47;1.73;;;17.10;97.60;;;;;;5008572;28;20077;-88
2022/11/01 09:18:34;;;;;;;10.32;1.90;;;17.20;97.80;;;;;;5007233;28;20042;-88
2022/11/01 09:21:02;;;;;;;12.27;2.08;;;17.20;97.00;;;;;;5007559;28;20041;-88
2022/11/01 09:23:28;;;;;;;10.80;2.33;;;17.20;96.60;;;;;;5008714;28;20079;-88
2022/11/01 09:26:01;;;;;;;13.60;2.53;;;17.20;96.60;;;;;;5006769;28;20046;-89
2022/11/01 09:28:29;;;;;;;14.18;2.10;;;17.30;96.90;;;;;;5008642;28;20044;-89
2022/11/01 09:31:01;;;;;;;13.15;2.22;;;17.20;96.60;;;;;;4990158;28;20422;-87
2022/11/01 09:33:28;;;;;;;10.30;2.17;;;17.20;96.20;;;;;;5005948;28;20038;-88
2022/11/01 09:35:55;;;;;;;13.93;2.60;;;17.20;94.60;;;;;;5006930;28;20517;-88
2022/11/01 09:38:22;;;;;;;14.30;2.63;;;17.20;95.00;;;;;;5007225;28;20037;-88
2022/11/01 09:40:56;;;;;;;11.82;2.20;;;17.20;95.50;;;;;;5008057;28;20069;-88
2022/11/01 09:43:25;;;;;;;14.70;2.20;;;17.20;96.00;;;;;;5000823;28;20168;-88
2022/11/01 09:45:54;;;;;;;9.63;1.95;;;17.20;96.20;;;;;;5008147;28;20105;-89
2022/11/01 09:48:24;;;;;;;10.65;2.15;;;17.20;95.50;;;;;;4990833;28;20057;-88
2022/11/01 09:50:51;;;;;;;20.60;2.53;;;17.20;95.00;;;;;;5008426;28;20130;-88
2022/11/01 09:53:21;;;;;;;10.98;1.95;;;17.30;95.80;;;;;;5008376;28;20045;-89
2022/11/01 09:55:51;;;;;;;10.55;2.17;;;17.20;95.20;;;;;;5007965;28;20084;-88
2022/11/01 09:58:29;;;;;;;14.38;2.00;;;17.10;95.60;;;;;;5009638;28;20042;-88
2022/11/01 10:01:01;;;;;;;12.40;2.22;;;17.20;94.40;;;;;;5012500;28;20045;-88
2022/11/01 10:03:43;;;;;;;14.25;2.85;;;17.20;94.40;;;;;;5012562;28;20046;-88
2022/11/01 10:06:15;;;;;;;11.90;2.30;;;17.20;95.20;;;;;;5010928;28;20046;-88
2022/11/01 10:08:55;;;;;;;19.15;2.58;;;17.20;95.20;;;;;;5012227;28;20045;-87
2022/11/01 10:11:34;;;;;;;10.43;1.98;;;17.20;94.30;;;;;;5012345;28;20058;-89
2022/11/01 10:14:06;;;;;;;13.10;2.42;;;17.20;93.80;;;;;;5012354;28;20819;-88
2022/11/01 10:16:36;;;;;;;9.30;1.90;;;17.20;94.70;;;;;;5011498;28;20046;-89
2022/11/01 10:19:07;;;;;;;12.75;2.13;;;17.20;95.60;;;;;;5012084;28;20057;-89
2022/11/01 10:21:41;;;;;;;;;;;17.30;95.50;;;;;;5011018;28;20046;-88
2022/11/01 10:24:18;;;;;;;10.52;1.75;;;17.20;93.50;;;;;;5010560;28;19928;-89
2022/11/01 10:26:46;;;;;;;7.93;1.75;;;17.20;94.90;;;;;;5011897;28;20050;-88
2022/11/01 10:29:16;;;;;;;11.10;2.30;;;17.20;95.40;;;;;;5011948;28;20042;-88
2022/11/01 10:31:45;;;;;;;13.80;2.47;;;17.30;95.10;;;;;;5011930;28;20049;-88
2022/11/01 10:34:20;;;;;;;9.60;1.85;;;17.30;95.70;;;;;;5011854;28;20152;-89
2022/11/01 10:36:48;;;;;;;12.60;2.22;;;17.30;95.80;;;;;;5010901;28;20046;-88
2022/11/01 10:39:20;;;;;;;13.27;2.28;;;17.40;95.80;;;;;;5011619;28;20038;-89
2022/11/01 10:41:51;;;;;;;10.88;2.55;;;17.30;95.10;;;;;;5011850;28;20562;-89
2022/11/01 10:44:28;;;;;;;7.68;2.15;;;17.30;95.00;;;;;;5009823;28;20077;-88
2022/11/01 10:46:55;;;;;;;8.65;1.98;;;17.30;95.00;;;;;;5011743;28;20092;-88
2022/11/01 10:49:26;;;;;;;12.95;2.42;;;17.30;94.80;;;;;;5011464;28;20041;-88
2022/11/01 10:51:55;;;;;;;15.50;2.08;;;17.30;95.20;;;;;;5010604;28;20046;-88
2022/11/01 10:54:24;;;;;;;12.45;2.05;;;17.30;95.00;;;;;;5003208;28;20549;-89
2022/11/01 10:56:54;;;;;;;10.52;1.85;;;17.30;94.20;;;;;;5011390;28;20056;-88
2022/11/01 10:59:23;;;;;;;13.50;1.90;;;17.30;94.90;;;;;;5011380;28;20048;-89
2022/11/01 11:01:52;;;;;;;10.23;2.10;;;17.30;95.20;;;;;;5011099;28;20421;-88
2022/11/01 11:04:21;;;;;;;13.38;2.30;;;17.30;94.90;;;;;;5011147;28;20120;-89
2022/11/01 11:06:50;;;;;;;8.02;1.83;;;17.30;94.50;;;;;;5009535;28;20503;-88
2022/11/01 11:09:22;;;;;;;16.65;2.05;;;17.30;94.70;;;;;;5010593;28;20048;-88
2022/11/01 11:11:50;;;;;;;9.73;1.92;;;17.30;94.70;;;;;;5010472;28;20041;-89
2022/11/01 11:14:19;;;;;;;13.90;2.38;;;17.40;95.20;;;;;;5009143;28;20050;-89
2022/11/01 11:16:49;;;;;;;10.60;2.28;;;17.40;95.00;;;;;;5010840;28;20080;-88
2022/11/01 11:19:22;;;;;;;7.97;1.83;;;17.40;94.90;;;;;;5010364;28;20053;-88
2022/11/01 11:21:53;;;;;;;9.25;2.08;;;17.40;95.10;;;;;;5001239;28;20049;-89
2022/11/01 11:24:21;;;;;;;9.83;1.90;;;17.40;95.30;;;;;;4993320;28;20046;-88
2022/11/01 11:26:51;;;;;;;22.33;2.47;;;17.40;94.60;;;;;;4991047;28;20298;-89
2022/11/01 11:29:29;;;;;;;12.32;1.92;;;17.40;95.30;;;;;;4973571;28;20053;-89
2022/11/01 11:31:57;;;;;;;9.52;2.17;;;17.40;95.10;;;;;;4991267;28;20144;-89
2022/11/01 11:34:28;;;;;;;14.18;2.22;;;17.40;94.40;;;;;;5007075;28;20038;-89
2022/11/01 11:36:56;;;;;;;14.15;2.28;;;17.40;94.80;;;;;;5010555;28;20042;-88
2022/11/01 11:39:24;;;;;;;12.63;2.08;;;17.40;94.50;;;;;;5010643;28;20044;-89
2022/11/01 11:41:51;;;;;;;11.32;2.30;;;17.40;94.60;;;;;;5010635;28;20046;-89
2022/11/01 11:44:40;;;;;;;12.02;2.25;;;17.40;94.60;;;;;;5009977;28;20042;-88
2022/11/01 11:47:18;;;;;;;17.42;2.35;;;17.40;94.60;;;;;;5006967;28;20442;-89
2022/11/01 11:49:45;;;;;;;13.90;2.38;;;17.40;94.50;;;;;;5005960;28;20048;-87
2022/11/01 11:52:18;;;;;;;9.85;2.10;;;17.50;95.00;;;;;;5002991;28;20041;-81
2022/11/01 11:54:45;;;;;;;11.73;2.08;;;17.50;94.80;;;;;;5005238;28;20053;-85
2022/11/01 11:57:18;;;;;;;10.98;1.90;;;17.50;94.20;;;;;;5007746;28;20098;-82
2022/11/01 11:59:46;;;;;;;10.90;2.10;;;17.50;94.60;;;;;;5009051;28;20038;-83
2022/11/01 12:02:19;;;;;;;8.88;1.88;;;17.50;94.60;;;;;;5002293;28;20054;-83
2022/11/01 12:04:51;;;;;;;12.95;2.70;;;17.50;94.90;;;;;;5006235;28;20046;-83
2022/11/01 12:07:28;;;;;;;10.23;2.30;;;17.50;95.40;;;;;;5006287;28;20065;-84
2022/11/01 12:09:56;;;;;;;13.93;2.47;;;17.50;94.10;;;;;;5007510;28;20030;-83
2022/11/01 12:12:26;;;;;;;12.40;1.88;;;17.50;95.00;;;;;;5008365;28;20057;-83
2022/11/01 12:14:54;;;;;;;15.20;2.28;;;17.60;95.10;;;;;;5007247;28;20361;-83
2022/11/01 12:17:43;;;;;;;10.23;2.33;;;17.60;94.70;;;;;;5005689;28;20034;-85
2022/11/01 12:20:15;;;;;;;13.63;1.92;;;17.60;93.50;;;;;;5002505;28;20141;-83
2022/11/01 12:22:48;;;;;;;13.80;2.50;;;17.60;94.30;;;;;;5003381;28;20165;-83
2022/11/01 12:25:18;;;;;;;11.15;2.00;;;17.60;94.10;;;;;;5007677;28;20049;-84
2022/11/01 12:27:53;;;;;;;10.20;2.30;;;17.50;94.60;;;;;;4985100;28;20057;-84
2022/11/01 12:30:23;;;;;;;13.35;2.40;;;17.50;94.40;;;;;;4991019;28;20042;-84
2022/11/01 12:32:52;;;;;;;13.32;2.15;;;17.50;94.10;;;;;;5007928;28;20116;-84
2022/11/01 12:35:25;;;;;;;13.15;2.25;;;17.50;94.20;;;;;;5007150;28;20041;-86
2022/11/01 12:38:03;;;;;;;10.98;2.45;;;17.50;94.40;;;;;;4989791;28;20060;-84
2022/11/01 12:40:32;;;;;;;13.77;2.70;;;17.50;94.40;;;;;;5006233;28;20510;-84
2022/11/01 12:43:02;;;;;;;14.77;2.55;;;17.50;93.80;;;;;;5009437;28;20052;-84
2022/11/01 12:45:32;;;;;;;10.90;2.10;;;17.50;94.00;;;;;;5005790;28;20042;-86
2022/11/01 12:48:03;;;;;;;11.02;2.35;;;17.50;94.20;;;;;;4972120;28;20058;-86
2022/11/01 12:50:37;;;;;;;12.25;2.25;;;17.50;93.50;;;;;;4991710;28;20049;-86
2022/11/01 12:53:10;;;;;;;11.20;2.00;;;17.50;94.70;;;;;;5009392;28;20056;-85
2022/11/01 12:55:38;;;;;;;10.30;2.08;;;17.50;95.10;;;;;;5007298;28;20524;-85
2022/11/01 12:58:09;;;;;;;15.75;2.00;;;17.50;95.30;;;;;;5008753;28;20124;-86
2022/11/01 13:01:05;;;;;;;10.75;2.10;;;17.50;95.10;;;;;;5007469;28;20520;-88